createdAt,value
2023-04-15T00:04:20.336Z,7
2023-04-15T00:33:28.522Z,7
2023-04-15T01:02:48.308Z,9
2023-04-15T01:31:59.501Z,8
2023-04-15T02:01:14.830Z,7
2023-04-15T02:30:27.761Z,8
2023-04-15T02:59:48.602Z,7
2023-04-15T03:29:06.257Z,5
2023-04-15T03:58:15.922Z,7
2023-04-15T04:27:25.031Z,8
2023-04-15T04:56:35.980Z,7
2023-04-15T05:25:46.306Z,7
2023-04-15T05:54:58.684Z,7
2023-04-15T06:24:12.184Z,5
2023-04-15T06:53:24.755Z,13
2023-04-15T07:22:46.583Z,11
2023-04-15T07:52:00.286Z,9
2023-04-15T08:21:23.725Z,10
2023-04-15T08:50:41.279Z,10
2023-04-15T09:20:00.061Z,9
2023-04-15T09:49:18.207Z,9
2023-04-15T10:18:33.282Z,9
2023-04-15T10:47:53.593Z,7
2023-04-15T11:17:13.474Z,13
2023-04-15T11:46:40.416Z,7
2023-04-15T12:15:54.821Z,7
2023-04-15T12:45:04.033Z,7
2023-04-15T13:14:23.732Z,7
2023-04-15T13:43:36.498Z,6
2023-04-15T14:12:40.920Z,7
2023-04-15T14:41:55.610Z,9
2023-04-15T15:11:07.729Z,8
2023-04-15T15:40:16.253Z,9
2023-04-15T16:09:28.685Z,13
2023-04-15T16:38:34.888Z,7
2023-04-15T17:07:55.892Z,13
2023-04-15T17:37:09.665Z,12
2023-04-15T18:06:32.480Z,7
2023-04-15T18:35:50.423Z,7
2023-04-15T19:05:06.364Z,6
2023-04-15T19:34:07.480Z,6
2023-04-15T20:03:14.457Z,13
2023-04-15T20:32:08.186Z,10
2023-04-15T21:01:15.887Z,10
2023-04-15T21:30:15.309Z,12
2023-04-15T21:59:22.211Z,16
2023-04-15T22:28:43.635Z,19
2023-04-15T22:58:05.993Z,26
2023-04-15T23:27:27.452Z,31
2023-04-15T23:56:44.965Z,32
